createdAt,value
2017-10-05T00:01:29.389Z,1.62
2017-10-05T00:03:58.072Z,1.30
2017-10-05T00:06:26.369Z,1.10
2017-10-05T00:08:55.474Z,1.00
2017-10-05T00:11:23.749Z,0.90
2017-10-05T00:13:52.058Z,1.00
2017-10-05T00:16:20.349Z,1.10
2017-10-05T00:18:48.621Z,0.80
2017-10-05T00:21:16.887Z,1.10
2017-10-05T00:23:45.164Z,1.00
2017-10-05T00:26:13.404Z,1.10
2017-10-05T00:28:41.725Z,0.80
2017-10-05T00:31:09.999Z,0.93
2017-10-05T00:33:38.273Z,1.00
2017-10-05T00:36:06.535Z,1.10
2017-10-05T00:38:35.019Z,0.85
2017-10-05T00:41:03.341Z,0.80
2017-10-05T00:43:31.637Z,0.90
2017-10-05T00:45:59.889Z,1.00
2017-10-05T00:48:28.144Z,0.90
2017-10-05T00:50:56.430Z,0.90
2017-10-05T00:53:24.742Z,0.90
2017-10-05T00:55:53.039Z,0.80
2017-10-05T00:58:21.289Z,1.10
2017-10-05T01:00:49.539Z,1.00
2017-10-05T01:03:17.848Z,1.10
2017-10-05T01:05:46.097Z,1.77
2017-10-05T01:08:15.118Z,1.02
2017-10-05T01:10:43.767Z,1.35
2017-10-05T01:13:12.802Z,1.10
2017-10-05T01:15:41.096Z,1.25
2017-10-05T01:20:43.922Z,1.20
2017-10-05T01:23:12.192Z,1.30
2017-10-05T01:25:40.495Z,1.40
2017-10-05T01:28:09.544Z,1.37
2017-10-05T01:30:37.763Z,1.20
2017-10-05T01:33:06.759Z,1.23
2017-10-05T01:35:35.732Z,1.60
2017-10-05T01:38:03.926Z,1.33
2017-10-05T01:40:32.899Z,1.42
2017-10-05T01:43:01.091Z,1.50
2017-10-05T01:45:30.058Z,2.30
2017-10-05T01:47:58.343Z,2.00
2017-10-05T01:50:26.518Z,2.95
2017-10-05T01:52:54.703Z,2.58
2017-10-05T01:55:23.695Z,2.05
2017-10-05T01:57:52.655Z,2.30
2017-10-05T02:00:20.884Z,2.28
2017-10-05T02:02:49.082Z,2.25
2017-10-05T02:05:17.291Z,2.78
2017-10-05T02:07:46.632Z,2.50
2017-10-05T02:10:14.830Z,2.08
2017-10-05T02:12:43.046Z,2.83
2017-10-05T02:15:12.039Z,2.40
2017-10-05T02:17:41.023Z,2.12
2017-10-05T02:20:09.587Z,1.90
2017-10-05T02:22:37.859Z,2.75
2017-10-05T02:25:06.054Z,2.28
2017-10-05T02:27:35.066Z,3.30
2017-10-05T02:30:04.039Z,2.30
2017-10-05T02:32:33.043Z,2.67
2017-10-05T02:35:02.004Z,2.87
2017-10-05T02:37:30.276Z,3.58
2017-10-05T02:39:58.476Z,3.12
2017-10-05T02:42:26.676Z,2.83
2017-10-05T02:44:54.998Z,2.42
2017-10-05T02:47:23.253Z,2.70
2017-10-05T02:49:51.485Z,2.62
2017-10-05T02:52:20.535Z,3.00
2017-10-05T02:54:48.745Z,2.72
2017-10-05T02:57:17.715Z,2.40
2017-10-05T02:59:45.914Z,3.20
2017-10-05T03:02:14.956Z,2.78
2017-10-05T03:04:43.151Z,2.75
2017-10-05T03:07:11.364Z,2.87
2017-10-05T03:09:40.344Z,2.97
2017-10-05T03:12:08.540Z,2.30
2017-10-05T03:14:36.741Z,2.95
2017-10-05T03:17:05.692Z,2.95
2017-10-05T03:19:33.900Z,2.72
2017-10-05T03:22:02.084Z,2.75
2017-10-05T03:24:30.275Z,2.70
2017-10-05T03:26:58.490Z,2.90
2017-10-05T03:29:27.443Z,2.95
2017-10-05T03:31:55.692Z,2.62
2017-10-05T03:34:23.897Z,2.42
2017-10-05T03:36:52.107Z,2.97
2017-10-05T03:39:20.391Z,2.65
2017-10-05T03:41:48.598Z,2.90
2017-10-05T03:44:16.782Z,2.75
2017-10-05T03:46:44.993Z,2.90
2017-10-05T03:49:13.940Z,2.35
2017-10-05T03:51:42.149Z,2.42
2017-10-05T03:54:11.132Z,2.40
2017-10-05T03:56:39.315Z,2.20
2017-10-05T03:59:08.271Z,2.40
2017-10-05T04:01:36.478Z,2.60
2017-10-05T04:04:05.230Z,2.42
2017-10-05T04:06:33.467Z,2.30
2017-10-05T04:09:01.649Z,2.70
2017-10-05T04:11:29.831Z,2.70
2017-10-05T04:13:58.050Z,2.60
2017-10-05T04:16:26.269Z,2.05
2017-10-05T04:18:54.473Z,2.35
2017-10-05T04:21:23.035Z,2.20
2017-10-05T04:23:51.203Z,3.20
2017-10-05T04:26:19.393Z,2.70
2017-10-05T04:28:47.572Z,3.17
2017-10-05T04:31:15.828Z,2.67
2017-10-05T04:33:44.386Z,2.97
2017-10-05T04:36:12.580Z,3.00
2017-10-05T04:38:40.798Z,2.85
2017-10-05T04:41:09.016Z,2.60
2017-10-05T04:43:37.291Z,2.70
2017-10-05T04:46:05.483Z,2.87
2017-10-05T04:48:33.774Z,2.92
2017-10-05T04:51:01.983Z,2.90
2017-10-05T04:53:30.203Z,2.60
2017-10-05T04:55:58.395Z,2.62
2017-10-05T04:58:26.632Z,3.28
2017-10-05T05:00:55.852Z,2.60
2017-10-05T05:03:24.113Z,3.20
2017-10-05T05:05:52.371Z,2.53
2017-10-05T05:08:20.561Z,2.20
2017-10-05T05:10:48.748Z,2.60
2017-10-05T05:13:16.942Z,2.55
2017-10-05T05:15:45.144Z,2.90
2017-10-05T05:18:13.330Z,2.50
2017-10-05T05:20:41.540Z,2.67
2017-10-05T05:23:09.778Z,2.45
2017-10-05T05:25:38.764Z,2.55
2017-10-05T05:28:07.742Z,2.70
2017-10-05T05:30:36.022Z,2.72
2017-10-05T05:33:05.025Z,2.92
2017-10-05T05:35:34.102Z,2.40
2017-10-05T05:38:03.169Z,2.53
2017-10-05T05:40:31.471Z,2.37
2017-10-05T05:43:00.466Z,2.33
2017-10-05T05:45:29.444Z,2.08
2017-10-05T05:47:57.633Z,2.55
2017-10-05T05:50:25.948Z,2.25
2017-10-05T05:52:54.147Z,2.33
2017-10-05T05:55:22.371Z,2.15
2017-10-05T05:57:51.511Z,2.30
2017-10-05T06:00:20.838Z,1.87
2017-10-05T06:02:49.834Z,2.20
2017-10-05T06:05:18.171Z,2.05
2017-10-05T06:07:46.428Z,2.00
2017-10-05T06:10:17.463Z,1.98
2017-10-05T06:12:45.728Z,1.80
2017-10-05T06:15:15.469Z,2.12
2017-10-05T06:17:44.774Z,2.17
2017-10-05T06:20:12.967Z,1.80
2017-10-05T06:22:41.166Z,1.83
2017-10-05T06:25:09.396Z,1.60
2017-10-05T06:27:37.634Z,1.85
2017-10-05T06:30:07.194Z,1.80
2017-10-05T06:32:35.428Z,1.48
2017-10-05T06:35:03.643Z,1.80
2017-10-05T06:37:31.864Z,1.73
2017-10-05T06:40:00.077Z,1.58
2017-10-05T06:42:28.298Z,1.30
2017-10-05T06:44:57.306Z,1.60
2017-10-05T06:47:25.579Z,1.52
2017-10-05T06:49:53.791Z,1.40
2017-10-05T06:52:22.382Z,1.30
2017-10-05T06:54:50.568Z,1.20
2017-10-05T06:57:18.772Z,1.25
2017-10-05T06:59:47.751Z,1.23
2017-10-05T07:02:15.951Z,1.20
2017-10-05T07:04:44.167Z,1.40
2017-10-05T07:07:12.410Z,1.20
2017-10-05T07:09:40.929Z,1.10
2017-10-05T07:12:09.110Z,1.62
2017-10-05T07:14:37.279Z,1.50
2017-10-05T07:17:05.484Z,1.20
2017-10-05T07:19:34.443Z,1.20
2017-10-05T07:22:03.035Z,1.40
2017-10-05T07:24:31.254Z,1.30
2017-10-05T07:26:59.447Z,1.30
2017-10-05T07:29:27.659Z,1.45
2017-10-05T07:31:55.900Z,1.20
2017-10-05T07:34:24.132Z,1.20
2017-10-05T07:36:53.127Z,0.95
2017-10-05T07:39:22.097Z,1.50
2017-10-05T07:41:50.315Z,1.10
2017-10-05T07:44:18.545Z,1.40
2017-10-05T07:46:47.591Z,1.67
2017-10-05T07:49:15.840Z,1.33
2017-10-05T07:51:44.854Z,1.40
2017-10-05T07:54:13.103Z,1.30
2017-10-05T07:56:41.334Z,1.50
2017-10-05T07:59:09.934Z,1.45
2017-10-05T08:01:38.152Z,1.45
2017-10-05T08:04:06.367Z,1.52
2017-10-05T08:06:34.613Z,1.40
2017-10-05T08:09:03.067Z,1.17
2017-10-05T08:11:31.479Z,1.50
2017-10-05T08:13:59.703Z,1.30
2017-10-05T08:16:28.663Z,1.35
2017-10-05T08:18:56.891Z,1.20
2017-10-05T08:21:25.164Z,1.37
2017-10-05T08:23:53.387Z,1.30
2017-10-05T08:26:21.611Z,1.20
2017-10-05T08:28:49.920Z,1.30
2017-10-05T08:31:18.215Z,1.40
2017-10-05T08:33:46.432Z,1.27
2017-10-05T08:36:15.591Z,1.20
2017-10-05T08:38:43.820Z,1.20
2017-10-05T08:41:12.654Z,1.20
2017-10-05T08:43:40.916Z,1.40
2017-10-05T08:46:09.191Z,1.48
2017-10-05T08:48:37.486Z,1.45
2017-10-05T08:51:05.863Z,1.40
2017-10-05T08:53:34.142Z,1.40
2017-10-05T08:56:02.327Z,1.30
2017-10-05T08:58:31.392Z,1.45
2017-10-05T09:00:59.686Z,1.98
2017-10-05T09:03:27.919Z,2.10
2017-10-05T09:05:56.727Z,2.17
2017-10-05T09:08:25.837Z,1.85
2017-10-05T09:10:54.122Z,1.42
2017-10-05T09:13:22.363Z,1.60
2017-10-05T09:15:50.647Z,1.50
2017-10-05T09:18:18.883Z,1.40
2017-10-05T09:20:48.040Z,1.30
2017-10-05T09:23:17.039Z,1.17
2017-10-05T09:25:45.240Z,1.48
2017-10-05T09:28:13.427Z,1.10
2017-10-05T09:30:41.655Z,1.20
2017-10-05T09:33:09.919Z,1.12
2017-10-05T09:35:38.144Z,1.10
2017-10-05T09:38:06.379Z,1.12
2017-10-05T09:40:35.638Z,1.12
2017-10-05T09:43:03.913Z,1.00
2017-10-05T09:45:32.804Z,0.98
2017-10-05T09:48:01.059Z,1.48
2017-10-05T09:50:29.288Z,0.98
2017-10-05T09:52:58.279Z,1.00
2017-10-05T09:58:00.853Z,1.08
2017-10-05T10:00:30.181Z,1.02
2017-10-05T10:02:58.452Z,0.90
2017-10-05T10:05:27.466Z,1.00
2017-10-05T10:07:56.439Z,1.00
2017-10-05T10:10:25.405Z,0.93
2017-10-05T10:12:53.677Z,1.00
2017-10-05T10:15:21.882Z,1.10
2017-10-05T10:17:51.668Z,1.17
2017-10-05T10:20:19.889Z,1.70
2017-10-05T10:22:49.240Z,1.17
2017-10-05T10:25:18.770Z,1.15
2017-10-05T10:27:47.020Z,1.25
2017-10-05T10:30:15.270Z,0.95
2017-10-05T10:32:43.521Z,0.98
2017-10-05T10:35:12.953Z,0.90
2017-10-05T10:37:41.183Z,1.10
2017-10-05T10:40:10.528Z,1.23
2017-10-05T10:42:38.750Z,1.30
2017-10-05T10:45:07.699Z,1.10
2017-10-05T10:47:37.440Z,1.45
2017-10-05T10:50:05.672Z,1.00
2017-10-05T10:52:34.381Z,1.15
2017-10-05T10:55:02.717Z,1.20
2017-10-05T10:57:31.020Z,1.23
2017-10-05T10:59:59.224Z,1.30
2017-10-05T11:02:27.531Z,1.33
2017-10-05T11:04:55.851Z,1.58
2017-10-05T11:07:24.248Z,1.45
2017-10-05T11:09:53.274Z,1.50
2017-10-05T11:12:21.612Z,1.67
2017-10-05T11:14:49.834Z,1.48
2017-10-05T11:17:18.078Z,1.80
2017-10-05T11:19:47.088Z,1.40
2017-10-05T11:22:15.309Z,1.55
2017-10-05T11:24:43.560Z,1.65
2017-10-05T11:27:11.932Z,1.30
2017-10-05T11:29:40.197Z,1.30
2017-10-05T11:32:08.455Z,2.15
2017-10-05T11:34:36.764Z,1.40
2017-10-05T11:37:05.371Z,1.25
2017-10-05T11:39:33.641Z,1.02
2017-10-05T11:42:02.000Z,0.98
2017-10-05T11:44:30.188Z,1.10
2017-10-05T11:46:59.361Z,1.08
2017-10-05T11:49:27.542Z,0.80
2017-10-05T11:51:55.869Z,1.02
2017-10-05T11:54:24.163Z,0.73
2017-10-05T11:56:53.135Z,0.82
2017-10-05T11:59:21.382Z,0.68
2017-10-05T12:01:49.568Z,0.80
2017-10-05T12:04:17.811Z,0.82
2017-10-05T12:06:46.891Z,0.98
2017-10-05T12:09:15.115Z,0.80
2017-10-05T12:11:43.298Z,0.70
2017-10-05T12:14:11.610Z,1.10
2017-10-05T12:16:39.807Z,1.00
2017-10-05T12:19:08.080Z,0.80
2017-10-05T12:21:36.369Z,0.98
2017-10-05T12:24:04.570Z,0.73
2017-10-05T12:26:32.830Z,0.80
2017-10-05T12:29:01.063Z,0.80
2017-10-05T12:31:29.328Z,0.82
2017-10-05T12:33:59.993Z,0.70
2017-10-05T12:36:28.335Z,0.80
2017-10-05T12:38:56.567Z,0.80
2017-10-05T12:41:24.784Z,0.80
2017-10-05T12:43:53.017Z,0.80
2017-10-05T12:46:21.191Z,0.80
2017-10-05T12:48:50.700Z,0.90
2017-10-05T12:51:18.988Z,0.80
2017-10-05T12:53:47.202Z,0.93
2017-10-05T12:56:15.830Z,0.90
2017-10-05T12:58:44.152Z,1.65
2017-10-05T13:01:12.516Z,1.30
2017-10-05T13:03:40.752Z,1.08
2017-10-05T13:06:09.000Z,1.00
2017-10-05T13:08:43.917Z,0.80
2017-10-05T13:11:12.322Z,0.80
2017-10-05T13:13:40.691Z,0.90
2017-10-05T13:16:09.117Z,1.05
2017-10-05T13:18:37.488Z,0.95
2017-10-05T13:21:05.713Z,0.95
2017-10-05T13:23:33.944Z,1.00
2017-10-05T13:26:02.240Z,0.80
2017-10-05T13:28:30.478Z,0.90
2017-10-05T13:30:58.794Z,1.23
2017-10-05T13:33:27.079Z,0.80
2017-10-05T13:35:55.475Z,0.90
2017-10-05T13:38:23.735Z,1.10
2017-10-05T13:40:52.164Z,1.10
2017-10-05T13:43:20.507Z,0.93
2017-10-05T13:45:49.642Z,0.82
2017-10-05T14:01:55.208Z,1.35
2017-10-05T14:04:23.577Z,1.10
2017-10-05T14:06:51.933Z,1.10
2017-10-05T14:09:20.201Z,1.10
2017-10-05T14:11:48.573Z,1.00
2017-10-05T14:14:17.337Z,1.15
2017-10-05T14:16:45.698Z,1.45
2017-10-05T14:19:13.990Z,1.30
2017-10-05T14:21:42.984Z,1.20
2017-10-05T14:24:11.272Z,1.33
2017-10-05T14:26:39.880Z,1.30
2017-10-05T14:29:08.896Z,1.40
2017-10-05T14:31:37.509Z,1.50
2017-10-05T14:34:06.650Z,1.30
2017-10-05T14:36:34.981Z,1.20
2017-10-05T14:39:03.307Z,1.60
2017-10-05T14:41:32.308Z,1.70
2017-10-05T14:44:01.384Z,2.45
2017-10-05T14:46:29.727Z,1.65
2017-10-05T14:48:59.375Z,1.37
2017-10-05T14:51:29.561Z,1.48
2017-10-05T14:53:57.847Z,1.55
2017-10-05T14:56:26.448Z,1.60
2017-10-05T14:58:55.732Z,2.78
2017-10-05T15:01:26.435Z,2.78
2017-10-05T15:03:54.739Z,3.80
2017-10-05T15:06:23.065Z,4.32
2017-10-05T15:08:51.373Z,4.37
2017-10-05T15:11:19.816Z,3.87
2017-10-05T15:13:48.091Z,3.45
2017-10-05T15:16:16.448Z,3.00
2017-10-05T15:18:45.519Z,2.30
2017-10-05T15:21:14.386Z,3.20
2017-10-05T15:23:43.389Z,1.90
2017-10-05T15:26:13.248Z,2.05
2017-10-05T15:28:42.616Z,2.08
2017-10-05T15:31:10.849Z,1.95
2017-10-05T15:33:39.102Z,2.03
2017-10-05T15:36:08.695Z,2.30
2017-10-05T15:38:38.046Z,1.95
2017-10-05T15:41:06.243Z,2.15
2017-10-05T15:43:34.616Z,1.85
2017-10-05T15:46:02.803Z,2.20
2017-10-05T15:48:31.008Z,2.10
2017-10-05T15:51:00.461Z,1.90
2017-10-05T15:53:28.742Z,1.67
2017-10-05T15:55:57.851Z,1.50
2017-10-05T15:58:26.182Z,2.12
2017-10-05T16:00:54.447Z,2.28
2017-10-05T16:03:23.453Z,1.70
2017-10-05T16:05:52.444Z,2.72
2017-10-05T16:08:20.740Z,2.22
2017-10-05T16:10:48.962Z,1.87
2017-10-05T16:13:18.004Z,1.83
2017-10-05T16:15:46.285Z,1.67
2017-10-05T16:18:14.512Z,1.62
2017-10-05T16:20:42.743Z,1.67
2017-10-05T16:23:11.030Z,2.22
2017-10-05T16:25:39.333Z,1.60
2017-10-05T16:28:07.530Z,2.00
2017-10-05T16:30:37.223Z,1.42
2017-10-05T16:33:05.489Z,1.50
2017-10-05T16:35:33.832Z,1.85
2017-10-05T16:38:02.043Z,1.48
2017-10-05T16:40:30.341Z,1.83
2017-10-05T16:43:00.489Z,1.75
2017-10-05T16:45:28.919Z,1.50
2017-10-05T16:47:57.281Z,1.80
2017-10-05T16:50:25.555Z,1.83
2017-10-05T16:52:53.921Z,1.80
2017-10-05T16:55:23.051Z,1.83
2017-10-05T16:57:52.967Z,1.92
2017-10-05T17:00:23.007Z,1.40
2017-10-05T17:02:52.022Z,1.83
2017-10-05T17:05:20.291Z,1.67
2017-10-05T17:07:48.734Z,1.95
2017-10-05T17:10:18.561Z,2.10
2017-10-05T17:12:46.799Z,1.90
2017-10-05T17:15:14.994Z,2.08
2017-10-05T17:17:44.672Z,2.20
2017-10-05T17:20:13.151Z,2.30
2017-10-05T17:22:41.411Z,2.55
2017-10-05T17:25:09.686Z,2.20
2017-10-05T17:27:37.998Z,2.20
2017-10-05T17:30:10.356Z,1.92
2017-10-05T17:32:38.559Z,2.22
2017-10-05T17:35:07.931Z,2.17
2017-10-05T17:37:36.140Z,2.83
2017-10-05T17:40:06.036Z,1.80
2017-10-05T17:42:35.365Z,1.77
2017-10-05T17:45:03.600Z,1.90
2017-10-05T17:47:31.820Z,1.80
2017-10-05T17:50:00.818Z,2.42
2017-10-05T17:52:29.393Z,1.80
2017-10-05T17:54:57.646Z,1.90
2017-10-05T17:57:26.884Z,2.12
2017-10-05T17:59:56.801Z,2.15
2017-10-05T18:02:26.168Z,2.20
2017-10-05T18:04:55.435Z,2.22
2017-10-05T18:07:23.804Z,2.22
2017-10-05T18:09:53.330Z,1.80
2017-10-05T18:12:22.379Z,2.45
2017-10-05T18:14:50.655Z,2.20
2017-10-05T18:17:19.046Z,2.17
2017-10-05T18:19:47.304Z,2.20
2017-10-05T18:22:15.562Z,1.80
2017-10-05T18:24:43.799Z,2.40
2017-10-05T18:27:13.600Z,2.08
2017-10-05T18:29:42.665Z,2.20
2017-10-05T18:32:11.664Z,2.22
2017-10-05T18:34:40.625Z,2.67
2017-10-05T18:37:08.851Z,2.30
2017-10-05T18:39:37.892Z,1.92
2017-10-05T18:42:06.163Z,2.00
2017-10-05T18:44:34.392Z,2.30
2017-10-05T18:47:02.655Z,2.50
2017-10-05T18:49:31.089Z,2.25
2017-10-05T18:51:59.307Z,2.20
2017-10-05T18:54:27.675Z,2.00
2017-10-05T18:56:56.992Z,2.50
2017-10-05T18:59:25.432Z,2.00
2017-10-05T19:01:53.707Z,2.20
2017-10-05T19:04:21.992Z,2.42
2017-10-05T19:06:50.233Z,2.35
2017-10-05T19:09:18.479Z,2.90
2017-10-05T19:11:47.839Z,2.40
2017-10-05T19:14:16.087Z,1.87
2017-10-05T19:16:44.326Z,2.25
2017-10-05T19:19:16.385Z,2.50
2017-10-05T19:21:44.656Z,2.22
2017-10-05T19:24:13.742Z,2.00
2017-10-05T19:26:41.998Z,2.35
2017-10-05T19:29:10.269Z,2.70
2017-10-05T19:31:38.547Z,2.12
2017-10-05T19:34:06.800Z,2.90
2017-10-05T19:36:35.096Z,2.53
2017-10-05T19:39:03.387Z,2.03
2017-10-05T19:41:31.704Z,2.40
2017-10-05T19:44:00.792Z,2.75
2017-10-05T19:46:29.796Z,2.90
2017-10-05T19:48:58.790Z,2.30
2017-10-05T19:51:28.082Z,2.15
2017-10-05T19:53:57.079Z,2.40
2017-10-05T19:56:26.544Z,2.45
2017-10-05T19:58:55.711Z,2.87
2017-10-05T20:01:24.023Z,2.40
2017-10-05T20:03:52.230Z,3.20
2017-10-05T20:06:21.255Z,2.42
2017-10-05T20:08:56.001Z,2.42
2017-10-05T20:11:24.631Z,2.45
2017-10-05T20:17:04.268Z,2.00
2017-10-05T20:19:39.039Z,1.90
2017-10-05T20:25:24.166Z,3.40
2017-10-05T20:27:58.233Z,2.20
2017-10-05T20:30:26.938Z,2.45
2017-10-05T20:32:55.166Z,2.78
2017-10-05T20:35:23.451Z,2.35
2017-10-05T20:37:52.484Z,2.50
2017-10-05T20:40:20.760Z,2.17
2017-10-05T20:42:49.001Z,2.10
2017-10-05T20:45:17.376Z,2.53
2017-10-05T20:47:45.670Z,2.67
2017-10-05T20:50:13.934Z,2.40
2017-10-05T20:52:42.385Z,2.00
2017-10-05T20:55:10.660Z,2.20
2017-10-05T20:57:38.957Z,2.33
2017-10-05T21:00:07.193Z,1.98
2017-10-05T21:02:35.476Z,2.53
2017-10-05T21:05:03.739Z,1.98
2017-10-05T21:07:32.230Z,1.98
2017-10-05T21:10:00.476Z,2.28
2017-10-05T21:12:28.719Z,2.12
2017-10-05T21:14:57.732Z,2.20
2017-10-05T21:17:26.047Z,2.53
2017-10-05T21:19:54.375Z,2.08
2017-10-05T21:22:22.607Z,1.95
2017-10-05T21:24:51.604Z,1.75
2017-10-05T21:27:21.591Z,1.90
2017-10-05T21:29:49.893Z,1.98
2017-10-05T21:32:18.193Z,1.70
2017-10-05T21:34:46.528Z,1.83
2017-10-05T21:37:14.868Z,2.10
2017-10-05T21:39:43.165Z,2.03
2017-10-05T21:42:11.408Z,2.17
2017-10-05T21:44:39.665Z,2.00
2017-10-05T21:47:07.938Z,1.67
2017-10-05T21:49:36.237Z,1.77
2017-10-05T21:52:04.610Z,2.20
2017-10-05T21:54:33.269Z,1.45
2017-10-05T21:57:01.548Z,1.80
2017-10-05T21:59:29.913Z,1.40
2017-10-05T22:01:58.273Z,1.60
2017-10-05T22:04:26.562Z,2.35
2017-10-05T22:06:54.843Z,1.25
2017-10-05T22:09:23.953Z,1.50
2017-10-05T22:11:52.188Z,1.92
2017-10-05T22:14:24.434Z,1.67
2017-10-05T22:16:52.779Z,1.30
2017-10-05T22:19:21.110Z,1.85
2017-10-05T22:21:49.566Z,1.73
2017-10-05T22:24:17.941Z,2.10
2017-10-05T22:26:46.222Z,1.77
2017-10-05T22:29:14.674Z,1.40
2017-10-05T22:31:43.021Z,2.20
2017-10-05T22:34:11.382Z,1.58
2017-10-05T22:36:39.658Z,1.65
2017-10-05T22:39:08.745Z,1.60
2017-10-05T22:41:37.032Z,1.35
2017-10-05T22:44:05.304Z,1.95
2017-10-05T22:46:33.558Z,1.60
2017-10-05T22:49:01.822Z,2.03
2017-10-05T22:51:30.406Z,2.00
2017-10-05T22:53:59.099Z,1.65
2017-10-05T22:56:27.393Z,1.83
2017-10-05T22:58:55.700Z,1.77
2017-10-05T23:01:24.761Z,1.62
2017-10-05T23:03:53.093Z,1.58
2017-10-05T23:06:21.384Z,2.03
2017-10-05T23:08:49.703Z,1.98
2017-10-05T23:11:19.333Z,1.80
2017-10-05T23:13:47.632Z,1.95
2017-10-05T23:16:15.900Z,1.60
2017-10-05T23:18:44.202Z,2.12
2017-10-05T23:21:12.490Z,1.70
2017-10-05T23:23:40.738Z,1.52
2017-10-05T23:26:09.089Z,1.70
2017-10-05T23:28:37.464Z,1.50
2017-10-05T23:31:05.807Z,1.60
2017-10-05T23:33:34.067Z,1.60
2017-10-05T23:36:02.339Z,1.75
2017-10-05T23:38:30.625Z,1.40
2017-10-05T23:40:58.951Z,1.30
2017-10-05T23:43:27.214Z,1.80
2017-10-05T23:45:55.468Z,1.95
2017-10-05T23:48:23.714Z,2.47
2017-10-05T23:50:52.047Z,2.03
2017-10-05T23:53:20.379Z,2.10
2017-10-05T23:55:48.782Z,1.42
2017-10-05T23:58:17.113Z,1.70
